MDT,Max TemperatureF,Mean TemperatureF,Min TemperatureF,Max Dew PointF,MeanDew PointF,Min DewpointF,Max Humidity, Mean Humidity, Min Humidity, Max Sea Level PressureIn, Mean Sea Level PressureIn, Min Sea Level PressureIn, Max VisibilityMiles, Mean VisibilityMiles, Min VisibilityMiles, Max Wind SpeedMPH, Mean Wind SpeedMPH, Max Gust SpeedMPH,PrecipitationIn, CloudCover, Events, WindDirDegrees
2013-8-1,98,77,55,52,47,35,77,45,12,30.02,29.83,29.61,10,10,10,23,7,28,0.00,0,Thunderstorm,220
2013-8-2,90,73,55,54,48,31,80,46,12,29.97,29.84,29.73,10,10,10,17,5,23,T,0,Rain-Thunderstorm,342
2013-8-3,89,72,55,56,53,47,83,56,29,30.16,29.95,29.81,10,10,5,16,6,20,0.00,1,,4
2013-8-4,94,75,56,56,51,39,80,48,15,30.01,29.90,29.79,10,10,10,14,5,20,0.00,0,,8
2013-8-5,92,74,55,54,46,36,67,41,14,29.96,29.85,29.72,10,10,6,38,5,55,0.02,1,Rain,295
2013-8-6,87,71,54,45,43,39,66,42,18,29.93,29.88,29.80,10,10,10,14,5,18,0.00,0,,355
2013-8-7,90,72,53,47,41,34,59,37,14,29.95,29.88,29.78,10,10,10,15,4,20,0.00,0,,314
2013-8-8,85,70,55,49,45,41,62,44,25,29.96,29.92,29.86,10,10,10,15,6,25,0.00,0,,272
2013-8-9,81,68,54,55,50,45,67,49,30,30.09,30.02,29.96,10,10,10,18,5,24,T,2,Rain,12
2013-8-10,91,72,52,52,45,35,83,51,18,30.06,30.00,29.92,10,10,10,43,5,56,T,0,,266
2013-8-11,92,75,58,47,40,31,53,32,11,30.05,29.98,29.90,10,10,10,22,5,29,0.00,0,Thunderstorm,235
2013-8-12,90,72,53,45,39,34,66,40,14,30.02,29.98,29.93,10,10,10,24,6,31,0.00,0,,178
2013-8-13,88,71,53,54,45,37,72,47,21,30.22,30.07,29.96,10,10,7,30,6,38,0.05,2,Rain-Thunderstorm,228
2013-8-14,88,70,52,52,46,36,86,51,16,30.09,30.00,29.91,10,10,10,12,3,15,0.00,0,,223
2013-8-15,93,73,53,43,37,31,54,33,11,30.03,29.95,29.88,10,10,10,14,5,16,0.00,0,,131
2013-8-16,100,76,52,47,31,17,64,35,5,30.00,29.90,29.82,10,10,10,13,5,30,0.00,0,,208
2013-8-17,99,77,54,41,29,22,35,21,7,29.94,29.85,29.78,10,10,7,13,4,16,0.00,0,,82
2013-8-18,94,76,57,47,41,36,46,30,13,29.91,29.86,29.81,10,10,8,15,5,21,0.00,0,,30
2013-8-19,97,77,57,47,41,30,52,31,10,29.94,29.86,29.76,10,10,9,13,5,14,0.00,0,,84
2013-8-20,96,76,56,41,34,29,47,30,12,29.91,29.82,29.75,10,10,8,14,5,23,0.00,0,,149
2013-8-21,78,70,61,60,49,38,73,51,29,30.12,29.97,29.80,10,10,6,3,6,3,0.06,3,Rain-Thunderstorm,147
2013-8-22,92,76,60,59,51,46,84,53,21,30.06,29.96,29.83,10,10,8,33,6,53,T,3,Rain-Thunderstorm,303
2013-8-23,95,76,57,58,51,44,80,50,19,29.89,29.81,29.69,10,10,10,23,7,35,T,1,Rain,3
2013-8-24,88,74,60,58,51,44,84,53,22,29.89,29.83,29.76,10,10,10,22,4,29,0.00,2,,1
2013-8-25,93,75,56,51,46,39,67,43,19,30.01,29.91,29.83,10,10,10,23,6,30,0.00,0,,76
2013-8-26,92,79,66,52,45,36,56,35,14,29.94,29.89,29.83,10,10,10,17,4,23,0.00,2,,57
2013-8-27,89,75,61,53,48,44,65,44,23,29.98,29.91,29.85,10,10,10,16,5,21,0.00,2,,16
2013-8-28,96,79,61,54,48,42,67,42,16,29.94,29.88,29.78,10,10,10,18,6,24,0.00,0,,251
2013-8-29,95,76,56,53,46,37,62,38,14,30.05,29.99,29.93,10,10,10,24,5,30,T,0,,193
2013-8-30,97,76,55,51,46,33,69,40,11,30.06,29.96,29.86,10,10,10,25,5,31,0.00,0,Thunderstorm,163
2013-8-31,87,70,53,49,43,40,66,43,19,30.03,29.96,29.87,10,10,10,13,5,21,0.00,0,,20